Time;durP1;ratioP1;P1;durP2;ratioP2;P2;SDS_P1;SDS_P2;PMS_P1;PMS_P2;Temp;Humidity;BMP_temperature;BMP_pressure;BME280_temperature;BME280_humidity;BME280_pressure;Samples;Min_cycle;Max_cycle;Signal;HPM_P1;HPM_P2
2022/02/10 00:03:10;;;;;;;6.40;4.00;;;6.40;95.80;;;;;;4942312;29;20051;-81
2022/02/10 00:34:15;;;;;;;7.53;4.20;;;6.40;95.10;;;;;;4928362;29;20055;-86
2022/02/10 00:36:52;;;;;;;7.80;3.75;;;6.40;95.10;;;;;;4938444;29;20514;-86
2022/02/10 00:42:15;;;;;;;7.30;4.20;;;6.40;95.20;;;;;;5092254;22;20146;-85
2022/02/10 00:44:43;;;;;;;7.00;3.78;;;6.30;94.90;;;;;;5073679;28;20541;-85
2022/02/10 00:47:10;;;;;;;9.15;4.20;;;6.20;95.10;;;;;;5075652;28;20083;-84
2022/02/10 00:49:37;;;;;;;7.63;4.18;;;6.10;94.80;;;;;;5078880;28;20045;-84
2022/02/10 00:52:06;;;;;;;8.32;4.30;;;5.90;95.00;;;;;;5081927;28;20087;-86
2022/02/10 00:54:36;;;;;;;9.63;4.40;;;5.80;95.30;;;;;;5080382;28;20048;-83
2022/02/10 00:57:07;;;;;;;8.18;4.15;;;5.70;95.80;;;;;;5054850;28;20128;-85
2022/02/10 00:59:48;;;;;;;7.40;4.28;;;5.60;95.90;;;;;;5072261;28;20481;-86
2022/02/10 01:07:01;;;;;;;7.47;3.90;;;5.60;96.30;;;;;;5056776;28;20485;-86
2022/02/10 01:11:10;;;;;;;;;;;5.40;96.70;;;;;;5052189;28;20133;-84
2022/02/10 01:13:51;;;;;;;8.90;4.85;;;5.40;96.70;;;;;;5052262;28;19928;-85
2022/02/10 01:24:37;;;;;;;9.77;4.63;;;5.30;96.50;;;;;;5033555;28;19932;-86
2022/02/10 01:29:49;;;;;;;8.45;4.20;;;5.00;96.90;;;;;;5034904;28;20107;-84
2022/02/10 01:32:18;;;;;;;8.32;4.63;;;4.90;97.00;;;;;;5033836;28;20140;-86
2022/02/10 01:34:49;;;;;;;9.38;4.90;;;4.80;97.30;;;;;;5035040;28;20042;-85
2022/02/10 01:37:18;;;;;;;7.45;4.30;;;4.70;97.50;;;;;;5021646;28;20109;-85
2022/02/10 01:39:50;;;;;;;8.80;4.68;;;4.60;97.90;;;;;;5036752;28;20084;-87
2022/02/10 02:04:24;;;;;;;7.60;4.07;;;4.40;98.40;;;;;;5018444;28;20069;-82
2022/02/10 02:06:55;;;;;;;7.05;3.78;;;4.40;98.50;;;;;;5017967;28;20133;-83
2022/02/10 02:09:22;;;;;;;7.55;3.88;;;4.30;98.50;;;;;;5019273;28;20104;-84
2022/02/10 02:11:53;;;;;;;8.32;4.00;;;4.30;98.60;;;;;;5027743;28;20042;-85
2022/02/10 02:14:24;;;;;;;7.65;3.97;;;4.20;98.70;;;;;;5023850;28;20099;-85
2022/02/10 02:16:53;;;;;;;9.13;4.13;;;4.20;98.80;;;;;;5040445;28;20140;-85
2022/02/10 02:19:23;;;;;;;7.30;3.67;;;4.20;99.00;;;;;;5040952;28;20128;-85
2022/02/10 02:21:51;;;;;;;9.13;4.28;;;4.30;99.00;;;;;;5021377;28;20136;-84
2022/02/10 02:24:22;;;;;;;7.82;3.67;;;4.30;99.00;;;;;;5040543;28;20136;-85
2022/02/10 02:26:52;;;;;;;7.25;3.80;;;4.30;98.90;;;;;;5058287;28;20056;-83
2022/02/10 02:29:27;;;;;;;6.90;3.60;;;4.30;98.90;;;;;;5058177;28;20045;-85
2022/02/10 02:31:58;;;;;;;8.30;3.75;;;4.30;98.80;;;;;;5055384;28;20042;-85
2022/02/10 02:35:00;;;;;;;9.35;3.72;;;4.30;98.50;;;;;;5038501;28;20053;-84
2022/02/10 02:37:48;;;;;;;9.10;3.85;;;4.30;98.40;;;;;;5037350;28;20132;-84
2022/02/10 03:05:21;;;;;;;;;;;3.80;99.30;;;;;;5045889;28;20063;-85
2022/02/10 03:07:51;;;;;;;6.72;3.40;;;3.80;99.10;;;;;;5042165;28;19972;-85
2022/02/10 03:13:04;;;;;;;6.70;3.53;;;3.90;99.00;;;;;;5040004;28;20049;-83
2022/02/10 03:15:38;;;;;;;7.82;3.70;;;3.90;98.90;;;;;;5021335;28;20046;-85
2022/02/10 03:18:26;;;;;;;8.25;3.45;;;3.90;98.80;;;;;;5037567;28;20054;-87
2022/02/10 03:21:19;;;;;;;7.25;3.45;;;4.00;98.60;;;;;;5045111;28;20456;-86
2022/02/10 04:00:12;;;;;;;6.85;2.90;;;4.40;97.50;;;;;;5023028;28;20011;-85
2022/02/10 04:08:29;;;;;;;6.13;2.90;;;4.40;97.20;;;;;;5000637;28;20076;-85
2022/02/10 04:11:13;;;;;;;5.78;3.25;;;4.50;97.20;;;;;;5036602;28;20123;-86
2022/02/10 04:13:51;;;;;;;6.78;3.25;;;4.50;97.10;;;;;;5036699;28;20409;-86
2022/02/10 04:16:22;;;;;;;6.28;3.30;;;4.50;97.10;;;;;;5036669;28;20088;-87
2022/02/10 04:19:37;;;;;;;6.25;3.10;;;4.50;97.00;;;;;;5020903;28;20425;-86
2022/02/10 04:22:11;;;;;;;6.13;3.35;;;4.60;97.00;;;;;;5036057;28;20057;-86
2022/02/10 04:25:01;;;;;;;6.28;2.90;;;4.60;96.70;;;;;;5035988;28;20041;-86
2022/02/10 04:27:37;;;;;;;5.88;2.65;;;4.60;96.30;;;;;;5038803;28;20057;-87
2022/02/10 04:30:20;;;;;;;6.88;3.40;;;4.60;96.20;;;;;;5042416;28;20045;-85
2022/02/10 04:38:45;;;;;;;6.13;3.40;;;4.30;96.80;;;;;;5038940;28;20548;-82
2022/02/10 04:58:11;;;;;;;;;;;4.10;97.40;;;;;;5017865;28;20054;-84
2022/02/10 05:01:01;;;;;;;8.77;3.30;;;4.00;97.60;;;;;;5017175;28;19928;-83
2022/02/10 05:06:51;;;;;;;7.15;3.00;;;3.90;97.50;;;;;;5018736;28;20392;-82
2022/02/10 05:20:27;;;;;;;6.40;3.35;;;3.70;98.10;;;;;;5020644;28;20050;-86
2022/02/10 05:23:18;;;;;;;8.35;3.38;;;3.70;98.00;;;;;;5029473;28;20057;-85
2022/02/10 05:31:51;;;;;;;7.15;3.15;;;3.50;98.10;;;;;;5031250;28;20100;-81
2022/02/10 05:34:16;;;;;;;6.05;3.00;;;3.30;98.40;;;;;;5024749;28;20041;-86
2022/02/10 05:36:46;;;;;;;5.68;2.92;;;3.30;98.90;;;;;;5014443;28;20066;-84
2022/02/10 05:39:29;;;;;;;5.68;3.00;;;3.20;99.10;;;;;;5032771;28;20134;-83
2022/02/10 05:42:28;;;;;;;9.63;3.45;;;3.20;99.30;;;;;;5034827;28;20057;-83
2022/02/10 05:45:05;;;;;;;7.22;3.58;;;3.20;99.10;;;;;;5033191;28;20050;-85
2022/02/10 05:51:01;;;;;;;6.85;2.80;;;3.00;99.10;;;;;;5025167;28;20026;-84
2022/02/10 05:56:16;;;;;;;6.77;2.83;;;2.80;99.90;;;;;;5038937;28;20069;-84
2022/02/10 06:49:08;;;;;;;6.40;2.45;;;3.90;97.90;;;;;;5032666;28;20056;-84
2022/02/10 06:51:43;;;;;;;5.20;2.33;;;4.00;97.80;;;;;;5040695;28;20103;-85
2022/02/10 06:54:19;;;;;;;5.78;2.60;;;4.00;97.70;;;;;;5049549;28;20077;-85
2022/02/10 07:05:34;;;;;;;5.65;2.72;;;4.20;97.30;;;;;;5016365;28;20410;-86
2022/02/10 07:08:21;;;;;;;4.88;2.13;;;4.20;97.20;;;;;;5038987;28;20057;-84
2022/02/10 07:47:43;;;;;;;9.52;3.55;;;4.30;97.60;;;;;;5038767;28;20103;-85
2022/02/10 07:59:18;;;;;;;7.00;2.47;;;4.80;97.50;;;;;;5037058;28;20388;-87
2022/02/10 08:56:58;;;;;;;11.10;4.68;;;6.10;95.10;;;;;;5026797;28;20046;-86
2022/02/10 08:59:55;;;;;;;13.13;6.38;;;6.20;95.10;;;;;;5029245;28;20053;-85
2022/02/10 09:05:16;;;;;;;17.88;7.85;;;6.40;95.10;;;;;;5047161;28;20487;-86
2022/02/10 09:19:34;;;;;;;13.45;4.22;;;6.80;94.80;;;;;;5012644;28;20053;-85
2022/02/10 10:00:49;;;;;;;7.40;3.42;;;8.40;93.40;;;;;;4958795;29;20047;-86
2022/02/10 10:03:22;;;;;;;9.00;3.47;;;8.50;93.00;;;;;;4958567;29;20468;-86
2022/02/10 10:06:12;;;;;;;7.32;3.40;;;8.60;92.80;;;;;;5003868;28;20091;-84
2022/02/10 10:08:54;;;;;;;13.40;3.55;;;8.70;92.70;;;;;;5023058;28;20042;-83
2022/02/10 10:11:53;;;;;;;7.05;3.28;;;8.80;92.50;;;;;;5038468;28;20132;-84
2022/02/10 10:14:25;;;;;;;10.35;3.50;;;8.90;92.30;;;;;;5031087;28;20057;-83
2022/02/10 10:17:12;;;;;;;9.05;3.30;;;9.00;91.40;;;;;;5019729;28;20070;-85
2022/02/10 10:19:54;;;;;;;7.90;3.95;;;9.10;91.40;;;;;;5017167;28;20046;-83
2022/02/10 10:23:08;;;;;;;8.95;3.55;;;9.20;91.30;;;;;;5035894;28;20050;-81
2022/02/10 10:51:01;;;;;;;7.90;3.35;;;10.20;89.20;;;;;;5031079;28;20407;-80
2022/02/10 10:53:36;;;;;;;9.90;3.78;;;10.30;89.80;;;;;;5015870;28;20104;-79
2022/02/10 10:56:09;;;;;;;;;;;10.40;88.80;;;;;;5029410;28;20493;-80
2022/02/10 10:58:43;;;;;;;8.52;3.20;;;10.50;89.00;;;;;;5035491;28;19983;-80
2022/02/10 11:04:57;;;;;;;9.23;4.00;;;10.60;87.50;;;;;;5012176;28;20376;-79
2022/02/10 11:38:25;;;;;;;7.03;2.92;;;11.60;82.30;;;;;;5034438;28;20056;-79
2022/02/10 11:44:22;;;;;;;7.10;2.70;;;11.70;81.60;;;;;;5020323;28;20121;-79
2022/02/10 13:23:36;;;;;;;7.22;3.25;;;13.20;75.20;;;;;;5033264;28;20136;-80
2022/02/10 13:27:16;;;;;;;7.68;3.10;;;13.10;76.20;;;;;;5033563;28;20136;-82
2022/02/10 13:49:36;;;;;;;6.68;3.30;;;12.90;79.20;;;;;;5037195;28;19971;-85
2022/02/10 14:13:54;;;;;;;8.40;3.53;;;12.70;80.20;;;;;;5038422;28;20403;-86
2022/02/10 14:19:15;;;;;;;7.05;3.63;;;12.60;81.20;;;;;;5038010;28;20081;-87
2022/02/10 14:21:59;;;;;;;10.85;4.60;;;12.50;81.50;;;;;;5038364;28;20045;-83
2022/02/10 14:27:11;;;;;;;9.00;4.22;;;12.20;83.60;;;;;;5038188;28;20052;-84
2022/02/10 14:29:40;;;;;;;7.10;3.67;;;12.00;84.50;;;;;;5038180;28;20084;-84
2022/02/10 14:32:09;;;;;;;11.13;4.60;;;11.90;85.50;;;;;;5038342;28;20060;-84
2022/02/10 14:34:36;;;;;;;8.90;3.88;;;11.80;86.40;;;;;;5038243;28;20414;-85
2022/02/10 14:37:26;;;;;;;8.75;4.10;;;11.70;87.60;;;;;;5037909;28;20051;-83
2022/02/10 14:40:01;;;;;;;9.40;4.40;;;11.50;88.30;;;;;;5037701;28;20047;-84
2022/02/10 15:36:04;;;;;;;12.05;4.65;;;9.90;94.70;;;;;;5003742;28;20444;-84
2022/02/10 15:47:33;;;;;;;10.70;5.88;;;9.70;95.40;;;;;;5021817;28;20406;-85
2022/02/10 16:12:54;;;;;;;8.30;3.58;;;9.20;96.00;;;;;;5035921;28;20071;-83
2022/02/10 16:17:58;;;;;;;7.32;2.92;;;9.20;95.50;;;;;;5019091;28;20053;-83
2022/02/10 16:20:29;;;;;;;8.13;3.38;;;9.10;95.10;;;;;;5016876;28;20454;-83
2022/02/10 16:23:01;;;;;;;6.47;3.10;;;9.10;94.90;;;;;;5034265;28;20148;-82
2022/02/10 16:25:32;;;;;;;6.63;3.25;;;9.10;94.70;;;;;;5034952;28;20056;-82
2022/02/10 16:28:09;;;;;;;6.55;2.95;;;9.00;94.60;;;;;;5034681;28;20164;-81
2022/02/10 16:30:37;;;;;;;6.72;2.88;;;9.00;94.50;;;;;;5034441;28;20140;-84
2022/02/10 16:33:07;;;;;;;6.00;2.80;;;8.90;94.50;;;;;;5034842;28;20124;-80
2022/02/10 16:35:34;;;;;;;5.88;3.05;;;8.90;94.60;;;;;;5034751;28;20136;-82
2022/02/10 16:38:02;;;;;;;5.05;2.70;;;8.90;94.40;;;;;;5033229;28;20081;-81
2022/02/10 16:40:29;;;;;;;6.60;2.50;;;8.80;94.30;;;;;;5051429;28;20089;-82
2022/02/10 16:42:56;;;;;;;6.53;2.45;;;8.80;94.20;;;;;;5053334;28;20091;-81
2022/02/10 16:45:24;;;;;;;6.60;2.80;;;8.80;94.30;;;;;;5053714;28;20514;-82
2022/02/10 16:47:52;;;;;;;5.00;2.50;;;8.80;94.40;;;;;;5037484;28;20065;-81
2022/02/10 16:50:21;;;;;;;7.60;2.70;;;8.70;94.40;;;;;;5034139;28;20107;-81
2022/02/10 16:52:54;;;;;;;7.28;3.03;;;8.70;94.60;;;;;;5034729;28;20092;-82
2022/02/10 16:55:32;;;;;;;6.22;2.55;;;8.70;94.40;;;;;;5034447;28;20053;-84
2022/02/10 16:58:11;;;;;;;5.32;2.60;;;8.70;94.50;;;;;;5024271;28;20045;-83
2022/02/10 17:01:09;;;;;;;8.27;2.70;;;8.70;94.70;;;;;;5035020;28;20034;-82
2022/02/10 17:15:27;;;;;;;5.80;2.50;;;8.60;94.60;;;;;;5029065;28;20096;-82
2022/02/10 17:18:00;;;;;;;6.57;3.05;;;8.60;94.50;;;;;;5033459;28;20076;-81
2022/02/10 17:20:43;;;;;;;6.47;2.80;;;8.60;94.60;;;;;;5032720;28;20140;-81
2022/02/10 17:26:08;;;;;;;6.72;2.60;;;8.50;94.40;;;;;;5036945;28;20052;-82
2022/02/10 17:28:37;;;;;;;8.15;2.50;;;8.50;94.50;;;;;;5036865;28;20042;-81
2022/02/10 17:31:23;;;;;;;4.68;2.50;;;8.50;94.30;;;;;;5036700;28;20095;-80
2022/02/10 17:34:13;;;;;;;5.72;2.60;;;8.50;94.40;;;;;;5037817;28;20469;-85
2022/02/10 17:36:51;;;;;;;4.88;2.35;;;8.50;94.50;;;;;;5039729;28;20059;-84
2022/02/10 17:45:06;;;;;;;5.25;2.47;;;8.50;94.30;;;;;;5033648;28;20096;-92
2022/02/10 17:53:04;;;;;;;4.63;2.20;;;8.50;94.20;;;;;;5029395;28;20511;-87
2022/02/10 17:55:33;;;;;;;4.78;2.10;;;8.50;94.20;;;;;;5040074;28;20049;-85
2022/02/10 17:58:01;;;;;;;4.78;2.30;;;8.50;94.20;;;;;;5039522;28;20124;-88
2022/02/10 18:00:28;;;;;;;5.53;2.60;;;8.50;94.00;;;;;;5040097;28;20124;-87
2022/02/10 18:02:59;;;;;;;5.85;2.30;;;8.50;93.90;;;;;;5021734;28;20051;-87
2022/02/10 18:05:57;;;;;;;5.63;2.40;;;8.50;93.70;;;;;;5039855;28;20049;-88
2022/02/10 18:08:24;;;;;;;6.45;2.35;;;8.50;93.60;;;;;;5039255;28;20045;-89
2022/02/10 18:13:43;;;;;;;5.55;2.08;;;8.50;93.40;;;;;;5022336;28;20063;-85
2022/02/10 18:16:16;;;;;;;5.28;2.58;;;8.60;93.60;;;;;;5037711;28;20052;-85
2022/02/10 18:18:51;;;;;;;5.38;2.20;;;8.50;93.40;;;;;;5037467;28;20409;-86
2022/02/10 18:21:33;;;;;;;6.50;2.45;;;8.60;93.50;;;;;;5022388;28;20059;-87
2022/02/10 18:24:08;;;;;;;4.97;2.30;;;8.50;93.40;;;;;;5038660;28;20053;-85
2022/02/10 18:26:58;;;;;;;;;;;8.50;93.50;;;;;;5039609;28;20107;-84
2022/02/10 18:29:37;;;;;;;5.50;2.00;;;8.50;93.80;;;;;;5038713;28;19992;-86
2022/02/10 19:01:29;;;;;;;;;;;8.60;93.80;;;;;;5036380;28;20128;-82
2022/02/10 19:08:20;;;;;;;6.60;3.40;;;8.60;93.80;;;;;;5003049;28;20053;-80
2022/02/10 19:10:53;;;;;;;;;;;8.60;93.80;;;;;;5034941;28;20056;-81
2022/02/10 19:13:22;;;;;;;6.47;3.13;;;8.50;93.80;;;;;;5034062;28;19928;-80
2022/02/10 19:15:54;;;;;;;5.35;3.20;;;8.60;93.80;;;;;;5034578;28;20046;-81
2022/02/10 19:18:21;;;;;;;7.70;3.00;;;8.60;93.80;;;;;;5034532;28;20486;-81
2022/02/10 19:20:48;;;;;;;5.43;3.00;;;8.50;93.80;;;;;;5033019;28;20053;-79
2022/02/10 19:23:16;;;;;;;6.32;3.15;;;8.60;93.80;;;;;;5033720;28;20109;-79
2022/02/10 19:25:43;;;;;;;5.50;2.70;;;8.60;93.80;;;;;;5034631;28;20136;-79
2022/02/10 19:28:10;;;;;;;5.60;2.75;;;8.60;93.70;;;;;;5034013;28;20136;-82
2022/02/10 19:30:40;;;;;;;6.28;2.85;;;8.60;93.60;;;;;;5033402;28;20060;-81
2022/02/10 19:33:13;;;;;;;5.30;3.20;;;8.60;93.70;;;;;;5034003;28;20064;-81
2022/02/10 19:35:44;;;;;;;6.05;3.30;;;8.60;93.60;;;;;;5034042;28;20096;-80
2022/02/10 19:38:16;;;;;;;5.25;2.92;;;8.60;93.50;;;;;;5033158;28;20046;-79
2022/02/10 19:40:46;;;;;;;7.82;2.90;;;8.60;93.60;;;;;;5033582;28;20054;-80
2022/02/10 19:43:14;;;;;;;4.93;2.80;;;8.60;93.60;;;;;;5032211;28;20042;-81
2022/02/10 19:45:42;;;;;;;5.28;3.08;;;8.60;93.60;;;;;;5034066;28;20392;-80
2022/02/10 19:48:11;;;;;;;6.40;3.15;;;8.60;93.60;;;;;;5036510;28;20049;-79
2022/02/10 19:50:38;;;;;;;5.88;2.72;;;8.60;93.60;;;;;;5033538;28;20137;-80
2022/02/10 19:53:09;;;;;;;12.82;5.97;;;8.60;93.70;;;;;;5033480;28;20491;-80
2022/02/10 19:55:40;;;;;;;18.00;9.73;;;8.50;93.80;;;;;;5033370;28;20132;-80
2022/02/10 19:58:11;;;;;;;12.80;7.15;;;8.50;93.80;;;;;;5033272;28;20180;-79
2022/02/10 20:00:43;;;;;;;8.68;4.07;;;8.50;94.00;;;;;;5033508;28;20140;-78
2022/02/10 20:03:15;;;;;;;6.22;3.15;;;8.50;94.10;;;;;;5033134;28;20057;-80
2022/02/10 20:05:46;;;;;;;6.22;3.08;;;8.50;94.00;;;;;;5027470;28;20088;-82
2022/02/10 20:08:16;;;;;;;6.13;3.40;;;8.60;94.10;;;;;;5052642;28;20045;-80
2022/02/10 20:10:43;;;;;;;6.72;3.42;;;8.60;94.10;;;;;;5053203;28;20136;-81
2022/02/10 20:13:16;;;;;;;6.60;3.25;;;8.60;94.00;;;;;;5043692;28;20080;-83
2022/02/10 20:15:44;;;;;;;6.70;3.47;;;8.60;94.00;;;;;;5034478;28;20140;-83
2022/02/10 20:18:14;;;;;;;6.03;3.35;;;8.60;94.00;;;;;;5033600;28;20057;-81
2022/02/10 20:20:42;;;;;;;6.25;3.30;;;8.60;94.00;;;;;;5033226;28;20049;-83
2022/02/10 20:23:10;;;;;;;6.63;3.00;;;8.60;94.00;;;;;;5033244;28;20505;-83
2022/02/10 20:25:38;;;;;;;7.72;3.55;;;8.60;94.10;;;;;;5033622;28;20141;-83
2022/02/10 20:28:09;;;;;;;5.68;3.30;;;8.60;94.10;;;;;;5032956;28;20053;-80
2022/02/10 20:30:38;;;;;;;6.32;3.28;;;8.60;94.20;;;;;;5033249;28;20041;-81
2022/02/10 20:33:05;;;;;;;6.78;3.20;;;8.60;94.30;;;;;;5032709;28;20133;-82
2022/02/10 20:35:36;;;;;;;7.80;3.88;;;8.60;94.30;;;;;;5033529;28;20368;-85
2022/02/10 20:38:04;;;;;;;6.75;3.35;;;8.60;94.30;;;;;;5034459;28;20052;-83
2022/02/10 20:40:35;;;;;;;8.70;3.70;;;8.60;94.30;;;;;;5033821;28;20045;-84
2022/02/10 20:43:06;;;;;;;6.80;3.30;;;8.60;94.30;;;;;;5033938;28;20069;-82
2022/02/10 20:45:35;;;;;;;6.63;3.05;;;8.60;94.30;;;;;;5033733;28;20049;-84
2022/02/10 20:48:04;;;;;;;9.18;3.78;;;8.60;94.30;;;;;;5032915;28;20060;-82
2022/02/10 20:50:33;;;;;;;5.90;3.08;;;8.70;94.40;;;;;;5033189;28;20056;-79
2022/02/10 20:53:00;;;;;;;6.53;3.08;;;8.70;94.50;;;;;;5045135;28;20072;-76
2022/02/10 20:55:27;;;;;;;7.35;3.45;;;8.60;94.50;;;;;;5052266;28;20724;-77
2022/02/10 20:57:54;;;;;;;6.60;3.30;;;8.60;94.60;;;;;;5053868;28;20045;-79
2022/02/10 21:00:29;;;;;;;6.53;3.47;;;8.60;94.60;;;;;;5048945;28;20136;-84
2022/02/10 21:02:56;;;;;;;6.18;3.40;;;8.60;94.70;;;;;;5035857;28;20081;-84
2022/02/10 21:05:30;;;;;;;5.78;3.00;;;8.60;94.70;;;;;;5037482;28;20049;-83
2022/02/10 21:08:09;;;;;;;5.22;3.03;;;8.50;94.80;;;;;;5037482;28;20058;-83
2022/02/10 21:10:38;;;;;;;6.88;3.20;;;8.50;94.80;;;;;;5037147;28;20103;-82
2022/02/10 21:13:06;;;;;;;6.95;3.60;;;8.50;94.90;;;;;;5036657;28;20050;-83
2022/02/10 21:15:40;;;;;;;6.43;3.10;;;8.50;95.10;;;;;;5036967;28;20045;-82
2022/02/10 21:18:08;;;;;;;6.93;3.20;;;8.40;95.30;;;;;;5036963;28;20402;-83
2022/02/10 21:20:36;;;;;;;6.45;3.30;;;8.40;95.40;;;;;;5036614;28;20491;-81
2022/02/10 21:23:15;;;;;;;6.63;3.53;;;8.40;95.50;;;;;;5036245;28;20128;-82
2022/02/10 21:25:43;;;;;;;7.03;3.67;;;8.40;95.60;;;;;;5032950;28;20056;-82
2022/02/10 21:28:18;;;;;;;7.18;3.90;;;8.40;95.50;;;;;;5036470;28;20083;-82
2022/02/10 21:30:48;;;;;;;7.78;4.25;;;8.40;95.50;;;;;;5036604;28;20053;-81
2022/02/10 21:33:22;;;;;;;7.38;4.18;;;8.40;95.50;;;;;;5035773;28;20057;-82
2022/02/10 21:38:45;;;;;;;7.55;4.40;;;8.40;95.70;;;;;;5016129;28;20053;-82
2022/02/10 21:55:27;;;;;;;23.00;12.30;;;8.30;96.20;;;;;;5036328;28;20541;-83
2022/02/10 22:04:00;;;;;;;6.03;3.40;;;8.30;96.40;;;;;;4956074;29;20062;-83
2022/02/10 22:09:33;;;;;;;8.02;4.78;;;8.20;96.60;;;;;;5035734;28;20056;-82
2022/02/10 22:12:16;;;;;;;8.20;3.58;;;8.20;96.60;;;;;;5036239;28;20495;-84
2022/02/10 22:20:16;;;;;;;6.53;3.50;;;8.10;97.10;;;;;;5024558;28;20046;-83
2022/02/10 22:23:00;;;;;;;7.50;4.18;;;8.10;97.20;;;;;;5036390;28;20483;-84
2022/02/10 22:25:28;;;;;;;6.45;3.83;;;8.10;97.20;;;;;;5035993;28;20471;-83
2022/02/10 22:28:02;;;;;;;6.70;4.10;;;8.10;97.20;;;;;;5035688;28;20080;-82
2022/02/10 22:30:41;;;;;;;8.00;3.83;;;8.10;97.30;;;;;;5035756;28;20406;-82
2022/02/10 22:33:20;;;;;;;6.18;3.72;;;8.10;97.50;;;;;;5035862;28;20049;-83
2022/02/10 22:35:49;;;;;;;5.90;3.40;;;8.10;97.50;;;;;;5035512;28;20049;-83
2022/02/10 22:38:20;;;;;;;6.05;3.15;;;8.00;97.60;;;;;;5035363;28;20076;-82
2022/02/10 22:41:00;;;;;;;5.60;3.40;;;8.00;97.40;;;;;;5035502;28;20144;-81
2022/02/10 22:43:29;;;;;;;6.00;3.22;;;8.00;97.30;;;;;;5035513;28;20042;-83
2022/02/10 22:45:56;;;;;;;7.35;3.45;;;7.90;97.50;;;;;;5035313;28;20521;-82
2022/02/10 22:48:23;;;;;;;5.97;3.90;;;7.90;97.50;;;;;;5035479;28;20569;-83
2022/02/10 22:50:50;;;;;;;8.70;3.88;;;7.90;97.50;;;;;;5035534;28;20542;-83
2022/02/10 22:53:17;;;;;;;6.32;3.55;;;7.80;97.80;;;;;;5023434;28;20046;-84
2022/02/10 22:55:44;;;;;;;6.13;3.50;;;7.80;97.90;;;;;;5015948;28;20129;-82
2022/02/10 22:58:11;;;;;;;8.75;4.70;;;7.80;98.00;;;;;;5015745;28;20056;-82
2022/02/10 23:00:47;;;;;;;9.43;4.57;;;7.80;97.80;;;;;;5035225;28;20051;-85
2022/02/10 23:03:16;;;;;;;8.63;4.60;;;7.80;97.70;;;;;;5035427;28;20049;-83
2022/02/10 23:05:43;;;;;;;6.97;4.30;;;7.80;97.90;;;;;;5035062;28;20053;-81
2022/02/10 23:08:11;;;;;;;9.88;4.40;;;7.80;98.00;;;;;;5034556;28;20462;-83
2022/02/10 23:10:43;;;;;;;7.35;4.40;;;7.80;98.10;;;;;;5034472;28;20053;-80
2022/02/10 23:13:11;;;;;;;10.93;6.28;;;7.80;98.20;;;;;;5034651;28;20042;-81
2022/02/10 23:15:40;;;;;;;8.30;4.80;;;7.80;98.20;;;;;;5034517;28;20053;-80
2022/02/10 23:18:10;;;;;;;8.82;4.82;;;7.80;98.20;;;;;;5034409;28;20053;-80
2022/02/10 23:20:38;;;;;;;11.00;5.30;;;7.80;98.30;;;;;;5033633;28;20052;-82
2022/02/10 23:23:08;;;;;;;10.68;5.57;;;7.80;98.40;;;;;;5034232;28;20561;-81
2022/02/10 23:25:37;;;;;;;10.15;6.22;;;7.80;98.40;;;;;;5034063;28;20053;-82
2022/02/10 23:28:07;;;;;;;12.32;6.40;;;7.80;98.60;;;;;;5033608;28;20046;-81
2022/02/10 23:30:35;;;;;;;10.52;5.78;;;7.70;98.50;;;;;;5016643;28;20136;-79
2022/02/10 23:33:10;;;;;;;11.75;6.28;;;7.70;98.60;;;;;;5034428;28;20140;-81
2022/02/10 23:38:27;;;;;;;10.85;5.93;;;7.80;98.80;;;;;;5034431;28;20068;-84
2022/02/10 23:41:26;;;;;;;10.30;6.07;;;7.80;98.80;;;;;;5016946;28;20050;-83
2022/02/10 23:43:51;;;;;;;9.65;5.93;;;7.80;98.70;;;;;;5033807;28;20057;-83
2022/02/10 23:46:20;;;;;;;9.27;5.60;;;7.80;98.60;;;;;;5019952;28;20144;-82
2022/02/10 23:48:50;;;;;;;9.48;5.68;;;7.90;98.60;;;;;;5034115;28;20072;-83
2022/02/10 23:51:18;;;;;;;10.85;5.45;;;7.90;98.60;;;;;;5034152;28;20048;-83
2022/02/10 23:53:45;;;;;;;10.30;6.05;;;7.90;98.60;;;;;;5034120;28;20128;-82
2022/02/10 23:56:16;;;;;;;10.05;5.80;;;7.90;98.60;;;;;;5034076;28;20083;-83
2022/02/10 23:58:51;;;;;;;9.48;5.97;;;7.90;98.50;;;;;;5034039;28;20081;-81
